sensor_id;sensor_type;location;lat;lon;timestamp;P1;durP1;ratioP1;P2;durP2;ratioP2
51578;SDS011;47998;53.242;6.386;2023-08-17T00:02:10;7.00;;;3.60;;
51578;SDS011;47998;53.242;6.386;2023-08-17T00:04:37;6.75;;;3.88;;
51578;SDS011;47998;53.242;6.386;2023-08-17T00:07:03;9.98;;;3.97;;
51578;SDS011;47998;53.242;6.386;2023-08-17T00:09:29;7.60;;;4.03;;
51578;SDS011;47998;53.242;6.386;2023-08-17T00:11:55;7.50;;;3.92;;
51578;SDS011;47998;53.242;6.386;2023-08-17T00:14:21;10.10;;;4.13;;
51578;SDS011;47998;53.242;6.386;2023-08-17T00:16:48;8.73;;;4.57;;
51578;SDS011;47998;53.242;6.386;2023-08-17T00:19:15;11.93;;;4.35;;
51578;SDS011;47998;53.242;6.386;2023-08-17T00:21:41;6.90;;;3.88;;
51578;SDS011;47998;53.242;6.386;2023-08-17T00:24:07;12.00;;;3.90;;
51578;SDS011;47998;53.242;6.386;2023-08-17T00:26:33;5.85;;;4.20;;
51578;SDS011;47998;53.242;6.386;2023-08-17T00:28:58;13.65;;;3.63;;
51578;SDS011;47998;53.242;6.386;2023-08-17T00:31:24;9.32;;;4.50;;
51578;SDS011;47998;53.242;6.386;2023-08-17T00:33:50;8.98;;;4.10;;
51578;SDS011;47998;53.242;6.386;2023-08-17T00:36:15;11.25;;;4.80;;
51578;SDS011;47998;53.242;6.386;2023-08-17T00:38:41;7.75;;;3.70;;
51578;SDS011;47998;53.242;6.386;2023-08-17T00:41:07;5.07;;;3.33;;
51578;SDS011;47998;53.242;6.386;2023-08-17T00:43:33;8.15;;;3.85;;
51578;SDS011;47998;53.242;6.386;2023-08-17T00:45:58;8.48;;;3.88;;
51578;SDS011;47998;53.242;6.386;2023-08-17T00:48:25;6.43;;;3.45;;
51578;SDS011;47998;53.242;6.386;2023-08-17T00:50:53;8.55;;;3.83;;
51578;SDS011;47998;53.242;6.386;2023-08-17T00:53:20;15.80;;;4.32;;
51578;SDS011;47998;53.242;6.386;2023-08-17T00:55:47;10.10;;;4.65;;
51578;SDS011;47998;53.242;6.386;2023-08-17T00:58:13;8.45;;;4.18;;
51578;SDS011;47998;53.242;6.386;2023-08-17T01:00:39;8.82;;;3.78;;
51578;SDS011;47998;53.242;6.386;2023-08-17T01:03:05;11.07;;;4.05;;
51578;SDS011;47998;53.242;6.386;2023-08-17T01:05:31;6.32;;;3.75;;
51578;SDS011;47998;53.242;6.386;2023-08-17T01:07:58;5.88;;;3.92;;
51578;SDS011;47998;53.242;6.386;2023-08-17T01:10:26;9.50;;;4.38;;
51578;SDS011;47998;53.242;6.386;2023-08-17T01:15:38;7.00;;;3.60;;
51578;SDS011;47998;53.242;6.386;2023-08-17T01:18:15;7.53;;;3.55;;
51578;SDS011;47998;53.242;6.386;2023-08-17T01:20:49;11.27;;;3.78;;
51578;SDS011;47998;53.242;6.386;2023-08-17T01:23:16;8.85;;;4.57;;
51578;SDS011;47998;53.242;6.386;2023-08-17T01:25:42;7.90;;;4.15;;
51578;SDS011;47998;53.242;6.386;2023-08-17T01:28:07;9.30;;;4.40;;
51578;SDS011;47998;53.242;6.386;2023-08-17T01:30:34;10.57;;;4.55;;
51578;SDS011;47998;53.242;6.386;2023-08-17T01:33:29;11.55;;;4.60;;
51578;SDS011;47998;53.242;6.386;2023-08-17T01:36:01;11.32;;;4.55;;
51578;SDS011;47998;53.242;6.386;2023-08-17T01:38:32;6.45;;;4.13;;
51578;SDS011;47998;53.242;6.386;2023-08-17T01:40:59;10.85;;;4.43;;
51578;SDS011;47998;53.242;6.386;2023-08-17T01:43:27;11.63;;;4.65;;
51578;SDS011;47998;53.242;6.386;2023-08-17T01:45:54;12.30;;;4.30;;
51578;SDS011;47998;53.242;6.386;2023-08-17T01:48:19;12.45;;;4.70;;
51578;SDS011;47998;53.242;6.386;2023-08-17T01:50:45;10.55;;;5.00;;
51578;SDS011;47998;53.242;6.386;2023-08-17T01:53:11;11.10;;;5.10;;
51578;SDS011;47998;53.242;6.386;2023-08-17T01:55:37;7.45;;;4.75;;
51578;SDS011;47998;53.242;6.386;2023-08-17T01:58:03;11.00;;;4.85;;
51578;SDS011;47998;53.242;6.386;2023-08-17T02:00:29;11.13;;;4.93;;
51578;SDS011;47998;53.242;6.386;2023-08-17T02:02:54;13.90;;;6.00;;
51578;SDS011;47998;53.242;6.386;2023-08-17T02:05:20;12.30;;;4.93;;
51578;SDS011;47998;53.242;6.386;2023-08-17T02:07:46;11.30;;;4.90;;
51578;SDS011;47998;53.242;6.386;2023-08-17T02:10:11;12.30;;;4.68;;
51578;SDS011;47998;53.242;6.386;2023-08-17T02:12:37;11.48;;;5.15;;
51578;SDS011;47998;53.242;6.386;2023-08-17T02:15:03;9.60;;;5.10;;
51578;SDS011;47998;53.242;6.386;2023-08-17T02:17:29;10.27;;;5.15;;
51578;SDS011;47998;53.242;6.386;2023-08-17T02:19:54;12.35;;;5.25;;
51578;SDS011;47998;53.242;6.386;2023-08-17T02:22:20;10.75;;;4.70;;
51578;SDS011;47998;53.242;6.386;2023-08-17T02:24:46;8.68;;;4.30;;
51578;SDS011;47998;53.242;6.386;2023-08-17T02:27:12;6.18;;;4.28;;
51578;SDS011;47998;53.242;6.386;2023-08-17T02:29:37;12.70;;;6.45;;
51578;SDS011;47998;53.242;6.386;2023-08-17T02:32:04;12.80;;;5.90;;
51578;SDS011;47998;53.242;6.386;2023-08-17T02:34:30;12.88;;;5.55;;
51578;SDS011;47998;53.242;6.386;2023-08-17T02:36:56;13.25;;;4.82;;
51578;SDS011;47998;53.242;6.386;2023-08-17T02:39:21;8.57;;;4.88;;
51578;SDS011;47998;53.242;6.386;2023-08-17T02:41:47;12.25;;;5.15;;
51578;SDS011;47998;53.242;6.386;2023-08-17T02:44:14;11.38;;;5.32;;
51578;SDS011;47998;53.242;6.386;2023-08-17T02:46:40;7.82;;;4.45;;
51578;SDS011;47998;53.242;6.386;2023-08-17T02:49:06;12.52;;;5.38;;
51578;SDS011;47998;53.242;6.386;2023-08-17T02:51:32;12.02;;;5.70;;
51578;SDS011;47998;53.242;6.386;2023-08-17T02:53:57;9.13;;;5.18;;
51578;SDS011;47998;53.242;6.386;2023-08-17T02:56:23;7.90;;;4.00;;
51578;SDS011;47998;53.242;6.386;2023-08-17T02:58:49;11.82;;;5.22;;
51578;SDS011;47998;53.242;6.386;2023-08-17T03:01:14;12.05;;;4.72;;
51578;SDS011;47998;53.242;6.386;2023-08-17T03:03:40;11.77;;;4.78;;
51578;SDS011;47998;53.242;6.386;2023-08-17T03:06:07;9.52;;;5.13;;
51578;SDS011;47998;53.242;6.386;2023-08-17T03:08:33;11.43;;;4.70;;
51578;SDS011;47998;53.242;6.386;2023-08-17T03:10:59;8.05;;;4.85;;
51578;SDS011;47998;53.242;6.386;2023-08-17T03:13:24;13.20;;;6.90;;
51578;SDS011;47998;53.242;6.386;2023-08-17T03:15:50;13.82;;;6.28;;
51578;SDS011;47998;53.242;6.386;2023-08-17T03:18:16;12.50;;;6.20;;
51578;SDS011;47998;53.242;6.386;2023-08-17T03:20:42;12.27;;;6.22;;
51578;SDS011;47998;53.242;6.386;2023-08-17T03:23:10;13.63;;;6.35;;
51578;SDS011;47998;53.242;6.386;2023-08-17T03:25:35;12.32;;;6.72;;
51578;SDS011;47998;53.242;6.386;2023-08-17T03:28:02;11.27;;;5.57;;
51578;SDS011;47998;53.242;6.386;2023-08-17T03:30:28;11.85;;;6.72;;
51578;SDS011;47998;53.242;6.386;2023-08-17T03:32:54;13.48;;;6.55;;
51578;SDS011;47998;53.242;6.386;2023-08-17T03:35:20;15.80;;;6.57;;
51578;SDS011;47998;53.242;6.386;2023-08-17T03:37:45;13.35;;;6.72;;
51578;SDS011;47998;53.242;6.386;2023-08-17T03:40:11;12.93;;;5.82;;
51578;SDS011;47998;53.242;6.386;2023-08-17T03:42:37;11.80;;;6.07;;
51578;SDS011;47998;53.242;6.386;2023-08-17T03:45:03;13.70;;;6.80;;
51578;SDS011;47998;53.242;6.386;2023-08-17T03:47:29;10.98;;;6.20;;
51578;SDS011;47998;53.242;6.386;2023-08-17T03:49:56;13.43;;;6.38;;
51578;SDS011;47998;53.242;6.386;2023-08-17T03:52:22;9.75;;;5.80;;
51578;SDS011;47998;53.242;6.386;2023-08-17T03:54:48;11.60;;;5.38;;
51578;SDS011;47998;53.242;6.386;2023-08-17T03:57:13;10.18;;;5.57;;
51578;SDS011;47998;53.242;6.386;2023-08-17T03:59:40;9.57;;;4.95;;
51578;SDS011;47998;53.242;6.386;2023-08-17T04:02:06;8.77;;;5.07;;
51578;SDS011;47998;53.242;6.386;2023-08-17T04:04:32;10.65;;;5.07;;
51578;SDS011;47998;53.242;6.386;2023-08-17T04:06:58;7.65;;;4.80;;
51578;SDS011;47998;53.242;6.386;2023-08-17T04:09:23;12.40;;;4.55;;
51578;SDS011;47998;53.242;6.386;2023-08-17T04:11:49;8.82;;;3.97;;
51578;SDS011;47998;53.242;6.386;2023-08-17T04:14:15;9.35;;;4.07;;
51578;SDS011;47998;53.242;6.386;2023-08-17T04:16:41;10.95;;;4.63;;
51578;SDS011;47998;53.242;6.386;2023-08-17T04:19:06;7.63;;;3.42;;
51578;SDS011;47998;53.242;6.386;2023-08-17T04:21:32;6.68;;;3.53;;
51578;SDS011;47998;53.242;6.386;2023-08-17T04:23:58;8.25;;;3.63;;
51578;SDS011;47998;53.242;6.386;2023-08-17T04:26:24;9.88;;;4.38;;
51578;SDS011;47998;53.242;6.386;2023-08-17T04:28:50;8.07;;;4.05;;
51578;SDS011;47998;53.242;6.386;2023-08-17T04:31:16;6.90;;;3.58;;
51578;SDS011;47998;53.242;6.386;2023-08-17T04:33:44;7.05;;;3.92;;
51578;SDS011;47998;53.242;6.386;2023-08-17T04:36:10;7.97;;;3.70;;
51578;SDS011;47998;53.242;6.386;2023-08-17T04:38:36;44.03;;;5.30;;
51578;SDS011;47998;53.242;6.386;2023-08-17T04:41:01;11.40;;;4.40;;
51578;SDS011;47998;53.242;6.386;2023-08-17T04:43:27;10.00;;;4.20;;
51578;SDS011;47998;53.242;6.386;2023-08-17T04:45:53;6.20;;;3.55;;
51578;SDS011;47998;53.242;6.386;2023-08-17T04:48:19;8.55;;;3.17;;
51578;SDS011;47998;53.242;6.386;2023-08-17T04:50:44;9.80;;;4.07;;
51578;SDS011;47998;53.242;6.386;2023-08-17T04:53:10;9.73;;;3.83;;
51578;SDS011;47998;53.242;6.386;2023-08-17T04:55:36;6.95;;;2.80;;
51578;SDS011;47998;53.242;6.386;2023-08-17T04:58:01;6.82;;;2.88;;
51578;SDS011;47998;53.242;6.386;2023-08-17T05:00:27;8.40;;;2.95;;
51578;SDS011;47998;53.242;6.386;2023-08-17T05:02:54;5.55;;;2.33;;
51578;SDS011;47998;53.242;6.386;2023-08-17T05:05:23;9.93;;;2.33;;
51578;SDS011;47998;53.242;6.386;2023-08-17T05:07:49;8.57;;;2.47;;
51578;SDS011;47998;53.242;6.386;2023-08-17T05:10:15;6.88;;;2.42;;
51578;SDS011;47998;53.242;6.386;2023-08-17T05:12:40;7.63;;;2.25;;
51578;SDS011;47998;53.242;6.386;2023-08-17T05:15:06;8.57;;;2.33;;
51578;SDS011;47998;53.242;6.386;2023-08-17T05:17:32;5.88;;;2.25;;
51578;SDS011;47998;53.242;6.386;2023-08-17T05:19:58;4.25;;;1.90;;
51578;SDS011;47998;53.242;6.386;2023-08-17T05:22:24;6.03;;;2.20;;
51578;SDS011;47998;53.242;6.386;2023-08-17T05:24:49;6.25;;;1.88;;
51578;SDS011;47998;53.242;6.386;2023-08-17T05:27:15;6.22;;;1.85;;
51578;SDS011;47998;53.242;6.386;2023-08-17T05:29:41;5.90;;;1.92;;
51578;SDS011;47998;53.242;6.386;2023-08-17T05:32:06;4.38;;;2.17;;
51578;SDS011;47998;53.242;6.386;2023-08-17T05:34:32;9.93;;;2.63;;
51578;SDS011;47998;53.242;6.386;2023-08-17T05:36:58;4.07;;;2.00;;
51578;SDS011;47998;53.242;6.386;2023-08-17T05:39:24;9.50;;;2.13;;
51578;SDS011;47998;53.242;6.386;2023-08-17T05:41:49;9.00;;;2.53;;
51578;SDS011;47998;53.242;6.386;2023-08-17T05:44:15;7.78;;;3.10;;
51578;SDS011;47998;53.242;6.386;2023-08-17T05:46:42;6.32;;;2.00;;
51578;SDS011;47998;53.242;6.386;2023-08-17T05:49:08;7.93;;;1.52;;
51578;SDS011;47998;53.242;6.386;2023-08-17T05:51:34;5.97;;;1.40;;
51578;SDS011;47998;53.242;6.386;2023-08-17T05:54:00;6.68;;;2.55;;
51578;SDS011;47998;53.242;6.386;2023-08-17T05:56:25;4.63;;;1.80;;
51578;SDS011;47998;53.242;6.386;2023-08-17T05:58:52;5.80;;;1.40;;
51578;SDS011;47998;53.242;6.386;2023-08-17T06:01:19;4.82;;;1.63;;
51578;SDS011;47998;53.242;6.386;2023-08-17T06:03:45;3.92;;;1.65;;
51578;SDS011;47998;53.242;6.386;2023-08-17T06:06:11;3.97;;;1.40;;
51578;SDS011;47998;53.242;6.386;2023-08-17T06:08:36;7.68;;;2.42;;
51578;SDS011;47998;53.242;6.386;2023-08-17T06:11:02;4.75;;;1.67;;
51578;SDS011;47998;53.242;6.386;2023-08-17T06:13:28;6.45;;;1.90;;
51578;SDS011;47998;53.242;6.386;2023-08-17T06:15:55;5.40;;;1.73;;
51578;SDS011;47998;53.242;6.386;2023-08-17T06:18:21;6.90;;;1.95;;
51578;SDS011;47998;53.242;6.386;2023-08-17T06:20:47;8.60;;;2.20;;
51578;SDS011;47998;53.242;6.386;2023-08-17T06:23:15;6.57;;;1.80;;
51578;SDS011;47998;53.242;6.386;2023-08-17T06:25:41;4.97;;;1.80;;
51578;SDS011;47998;53.242;6.386;2023-08-17T06:28:07;4.90;;;2.03;;
51578;SDS011;47998;53.242;6.386;2023-08-17T06:30:33;6.47;;;1.98;;
51578;SDS011;47998;53.242;6.386;2023-08-17T06:32:58;6.97;;;1.83;;
51578;SDS011;47998;53.242;6.386;2023-08-17T06:35:24;3.85;;;1.77;;
51578;SDS011;47998;53.242;6.386;2023-08-17T06:37:50;7.05;;;1.98;;
51578;SDS011;47998;53.242;6.386;2023-08-17T06:40:16;5.28;;;2.20;;
51578;SDS011;47998;53.242;6.386;2023-08-17T06:42:42;5.15;;;1.90;;
51578;SDS011;47998;53.242;6.386;2023-08-17T06:45:08;5.68;;;1.50;;
51578;SDS011;47998;53.242;6.386;2023-08-17T06:47:34;5.38;;;1.50;;
51578;SDS011;47998;53.242;6.386;2023-08-17T06:49:59;6.60;;;2.22;;
51578;SDS011;47998;53.242;6.386;2023-08-17T06:52:25;8.00;;;2.25;;
51578;SDS011;47998;53.242;6.386;2023-08-17T06:54:51;4.07;;;1.38;;
51578;SDS011;47998;53.242;6.386;2023-08-17T06:57:17;4.85;;;1.20;;
51578;SDS011;47998;53.242;6.386;2023-08-17T06:59:43;7.53;;;1.52;;
51578;SDS011;47998;53.242;6.386;2023-08-17T07:02:11;7.15;;;2.55;;
51578;SDS011;47998;53.242;6.386;2023-08-17T07:04:36;5.50;;;1.45;;
51578;SDS011;47998;53.242;6.386;2023-08-17T07:07:02;5.55;;;0.90;;
51578;SDS011;47998;53.242;6.386;2023-08-17T07:09:28;2.75;;;0.85;;
51578;SDS011;47998;53.242;6.386;2023-08-17T07:11:54;3.45;;;1.15;;
51578;SDS011;47998;53.242;6.386;2023-08-17T07:14:20;8.70;;;1.33;;
51578;SDS011;47998;53.242;6.386;2023-08-17T07:16:45;4.65;;;1.10;;
51578;SDS011;47998;53.242;6.386;2023-08-17T07:19:11;5.28;;;0.90;;
51578;SDS011;47998;53.242;6.386;2023-08-17T07:21:38;4.18;;;0.95;;
51578;SDS011;47998;53.242;6.386;2023-08-17T07:24:11;6.03;;;0.98;;
51578;SDS011;47998;53.242;6.386;2023-08-17T07:26:38;4.90;;;0.82;;
51578;SDS011;47998;53.242;6.386;2023-08-17T07:29:04;2.60;;;0.70;;
51578;SDS011;47998;53.242;6.386;2023-08-17T07:31:30;3.97;;;1.33;;
51578;SDS011;47998;53.242;6.386;2023-08-17T07:33:56;2.55;;;0.75;;
51578;SDS011;47998;53.242;6.386;2023-08-17T07:36:21;5.43;;;0.88;;
51578;SDS011;47998;53.242;6.386;2023-08-17T07:38:47;5.45;;;0.85;;
51578;SDS011;47998;53.242;6.386;2023-08-17T07:41:13;3.53;;;0.57;;
51578;SDS011;47998;53.242;6.386;2023-08-17T07:43:39;4.38;;;0.70;;
51578;SDS011;47998;53.242;6.386;2023-08-17T07:46:04;3.22;;;0.43;;
51578;SDS011;47998;53.242;6.386;2023-08-17T07:48:30;3.70;;;0.85;;
51578;SDS011;47998;53.242;6.386;2023-08-17T07:50:58;3.70;;;0.50;;
51578;SDS011;47998;53.242;6.386;2023-08-17T07:53:24;3.35;;;0.85;;
51578;SDS011;47998;53.242;6.386;2023-08-17T07:55:50;4.80;;;0.85;;
51578;SDS011;47998;53.242;6.386;2023-08-17T07:58:16;3.90;;;0.60;;
51578;SDS011;47998;53.242;6.386;2023-08-17T08:00:42;3.60;;;0.70;;
51578;SDS011;47998;53.242;6.386;2023-08-17T08:03:08;5.30;;;1.00;;
51578;SDS011;47998;53.242;6.386;2023-08-17T08:05:34;5.15;;;0.63;;
51578;SDS011;47998;53.242;6.386;2023-08-17T08:07:59;2.58;;;0.93;;
51578;SDS011;47998;53.242;6.386;2023-08-17T08:10:26;3.97;;;0.80;;
51578;SDS011;47998;53.242;6.386;2023-08-17T08:12:52;2.83;;;1.20;;
51578;SDS011;47998;53.242;6.386;2023-08-17T08:15:18;6.25;;;1.00;;
51578;SDS011;47998;53.242;6.386;2023-08-17T08:17:43;5.03;;;0.95;;
51578;SDS011;47998;53.242;6.386;2023-08-17T08:20:10;3.17;;;0.90;;
51578;SDS011;47998;53.242;6.386;2023-08-17T08:22:36;2.05;;;0.50;;
51578;SDS011;47998;53.242;6.386;2023-08-17T08:25:02;4.78;;;1.08;;
51578;SDS011;47998;53.242;6.386;2023-08-17T08:27:28;3.72;;;0.60;;
51578;SDS011;47998;53.242;6.386;2023-08-17T08:29:53;2.90;;;0.80;;
51578;SDS011;47998;53.242;6.386;2023-08-17T08:32:19;3.35;;;0.73;;
51578;SDS011;47998;53.242;6.386;2023-08-17T08:34:45;3.05;;;0.85;;
51578;SDS011;47998;53.242;6.386;2023-08-17T08:37:10;4.32;;;0.82;;
51578;SDS011;47998;53.242;6.386;2023-08-17T08:39:49;4.80;;;0.80;;
51578;SDS011;47998;53.242;6.386;2023-08-17T08:42:21;5.75;;;1.48;;
51578;SDS011;47998;53.242;6.386;2023-08-17T08:44:49;2.92;;;0.70;;
51578;SDS011;47998;53.242;6.386;2023-08-17T08:47:16;2.72;;;0.60;;
51578;SDS011;47998;53.242;6.386;2023-08-17T08:52:22;3.78;;;0.70;;
51578;SDS011;47998;53.242;6.386;2023-08-17T08:54:50;7.28;;;1.00;;
51578;SDS011;47998;53.242;6.386;2023-08-17T08:57:18;3.05;;;0.93;;
51578;SDS011;47998;53.242;6.386;2023-08-17T08:59:45;2.75;;;0.55;;
51578;SDS011;47998;53.242;6.386;2023-08-17T09:02:15;7.60;;;1.33;;
51578;SDS011;47998;53.242;6.386;2023-08-17T09:04:45;5.30;;;1.23;;
51578;SDS011;47998;53.242;6.386;2023-08-17T09:07:14;3.50;;;0.70;;
51578;SDS011;47998;53.242;6.386;2023-08-17T09:09:43;3.30;;;1.20;;
51578;SDS011;47998;53.242;6.386;2023-08-17T09:12:10;2.80;;;0.68;;
51578;SDS011;47998;53.242;6.386;2023-08-17T09:14:36;4.22;;;0.80;;
51578;SDS011;47998;53.242;6.386;2023-08-17T09:17:03;4.60;;;0.93;;
51578;SDS011;47998;53.242;6.386;2023-08-17T09:19:31;2.97;;;0.80;;
51578;SDS011;47998;53.242;6.386;2023-08-17T09:21:58;3.75;;;0.80;;
51578;SDS011;47998;53.242;6.386;2023-08-17T09:24:24;3.00;;;1.00;;
51578;SDS011;47998;53.242;6.386;2023-08-17T09:26:58;3.35;;;0.88;;
51578;SDS011;47998;53.242;6.386;2023-08-17T09:29:25;4.28;;;1.25;;
51578;SDS011;47998;53.242;6.386;2023-08-17T09:31:51;3.03;;;0.75;;
51578;SDS011;47998;53.242;6.386;2023-08-17T09:34:17;3.63;;;0.82;;
51578;SDS011;47998;53.242;6.386;2023-08-17T09:36:47;5.60;;;0.85;;
51578;SDS011;47998;53.242;6.386;2023-08-17T09:39:15;3.15;;;1.00;;
51578;SDS011;47998;53.242;6.386;2023-08-17T09:41:43;4.07;;;0.82;;
51578;SDS011;47998;53.242;6.386;2023-08-17T09:44:09;2.92;;;0.57;;
51578;SDS011;47998;53.242;6.386;2023-08-17T09:46:36;2.10;;;0.60;;
51578;SDS011;47998;53.242;6.386;2023-08-17T09:49:02;3.88;;;0.75;;
51578;SDS011;47998;53.242;6.386;2023-08-17T09:51:29;3.50;;;0.88;;
51578;SDS011;47998;53.242;6.386;2023-08-17T09:53:56;4.57;;;0.63;;
51578;SDS011;47998;53.242;6.386;2023-08-17T09:56:22;4.03;;;0.80;;
51578;SDS011;47998;53.242;6.386;2023-08-17T09:58:49;2.22;;;0.55;;
51578;SDS011;47998;53.242;6.386;2023-08-17T10:01:15;4.88;;;0.73;;
51578;SDS011;47998;53.242;6.386;2023-08-17T10:03:43;2.97;;;0.90;;
51578;SDS011;47998;53.242;6.386;2023-08-17T10:06:12;2.75;;;0.70;;
51578;SDS011;47998;53.242;6.386;2023-08-17T10:08:44;3.55;;;0.88;;
51578;SDS011;47998;53.242;6.386;2023-08-17T10:11:14;6.15;;;0.57;;
51578;SDS011;47998;53.242;6.386;2023-08-17T10:16:29;6.97;;;1.20;;
51578;SDS011;47998;53.242;6.386;2023-08-17T10:19:05;4.18;;;1.02;;
51578;SDS011;47998;53.242;6.386;2023-08-17T10:21:43;3.63;;;0.93;;
51578;SDS011;47998;53.242;6.386;2023-08-17T10:24:15;3.05;;;0.90;;
51578;SDS011;47998;53.242;6.386;2023-08-17T10:26:42;4.35;;;0.75;;
51578;SDS011;47998;53.242;6.386;2023-08-17T10:29:09;3.90;;;0.73;;
51578;SDS011;47998;53.242;6.386;2023-08-17T10:31:37;3.70;;;0.80;;
51578;SDS011;47998;53.242;6.386;2023-08-17T10:34:03;5.28;;;1.13;;
51578;SDS011;47998;53.242;6.386;2023-08-17T10:36:33;4.20;;;0.80;;
51578;SDS011;47998;53.242;6.386;2023-08-17T10:41:47;3.25;;;0.82;;
51578;SDS011;47998;53.242;6.386;2023-08-17T10:44:13;4.47;;;0.98;;
51578;SDS011;47998;53.242;6.386;2023-08-17T10:46:39;5.60;;;1.17;;
51578;SDS011;47998;53.242;6.386;2023-08-17T10:49:07;4.30;;;1.58;;
51578;SDS011;47998;53.242;6.386;2023-08-17T10:52:08;4.68;;;0.95;;
51578;SDS011;47998;53.242;6.386;2023-08-17T10:54:41;7.05;;;1.52;;
51578;SDS011;47998;53.242;6.386;2023-08-17T11:02:33;5.07;;;1.35;;
51578;SDS011;47998;53.242;6.386;2023-08-17T11:05:02;6.72;;;1.10;;
51578;SDS011;47998;53.242;6.386;2023-08-17T11:07:44;4.75;;;1.08;;
51578;SDS011;47998;53.242;6.386;2023-08-17T11:10:31;3.75;;;0.70;;
51578;SDS011;47998;53.242;6.386;2023-08-17T11:12:57;4.20;;;1.25;;
51578;SDS011;47998;53.242;6.386;2023-08-17T11:15:36;3.85;;;0.98;;
51578;SDS011;47998;53.242;6.386;2023-08-17T11:18:07;5.03;;;1.30;;
51578;SDS011;47998;53.242;6.386;2023-08-17T11:20:34;6.40;;;0.98;;
51578;SDS011;47998;53.242;6.386;2023-08-17T11:23:01;3.83;;;1.08;;
51578;SDS011;47998;53.242;6.386;2023-08-17T11:25:27;7.88;;;1.58;;
51578;SDS011;47998;53.242;6.386;2023-08-17T11:27:53;3.88;;;1.48;;
51578;SDS011;47998;53.242;6.386;2023-08-17T11:30:20;6.35;;;0.98;;
51578;SDS011;47998;53.242;6.386;2023-08-17T11:32:48;5.05;;;1.00;;
51578;SDS011;47998;53.242;6.386;2023-08-17T11:35:16;4.32;;;0.95;;
51578;SDS011;47998;53.242;6.386;2023-08-17T11:37:42;4.95;;;1.30;;
51578;SDS011;47998;53.242;6.386;2023-08-17T11:40:09;4.10;;;0.90;;
51578;SDS011;47998;53.242;6.386;2023-08-17T11:42:38;5.40;;;1.35;;
51578;SDS011;47998;53.242;6.386;2023-08-17T11:45:04;5.07;;;1.60;;
51578;SDS011;47998;53.242;6.386;2023-08-17T11:47:31;6.38;;;1.10;;
51578;SDS011;47998;53.242;6.386;2023-08-17T11:50:04;7.05;;;1.73;;
51578;SDS011;47998;53.242;6.386;2023-08-17T11:52:31;4.93;;;1.70;;
51578;SDS011;47998;53.242;6.386;2023-08-17T11:55:02;5.45;;;1.33;;
51578;SDS011;47998;53.242;6.386;2023-08-17T11:57:30;4.82;;;1.40;;
51578;SDS011;47998;53.242;6.386;2023-08-17T11:59:57;5.07;;;1.50;;
51578;SDS011;47998;53.242;6.386;2023-08-17T12:02:25;8.93;;;1.58;;
51578;SDS011;47998;53.242;6.386;2023-08-17T12:04:52;4.03;;;1.10;;
51578;SDS011;47998;53.242;6.386;2023-08-17T12:07:19;4.30;;;1.52;;
51578;SDS011;47998;53.242;6.386;2023-08-17T12:09:47;9.82;;;1.85;;
51578;SDS011;47998;53.242;6.386;2023-08-17T12:12:17;5.30;;;1.20;;
51578;SDS011;47998;53.242;6.386;2023-08-17T12:14:44;5.00;;;1.40;;
51578;SDS011;47998;53.242;6.386;2023-08-17T12:17:18;3.95;;;1.17;;
51578;SDS011;47998;53.242;6.386;2023-08-17T12:19:48;4.93;;;1.30;;
51578;SDS011;47998;53.242;6.386;2023-08-17T12:22:16;6.72;;;1.85;;
51578;SDS011;47998;53.242;6.386;2023-08-17T12:24:42;8.85;;;1.90;;
51578;SDS011;47998;53.242;6.386;2023-08-17T12:27:09;7.45;;;1.52;;
51578;SDS011;47998;53.242;6.386;2023-08-17T12:29:48;35.13;;;25.50;;
51578;SDS011;47998;53.242;6.386;2023-08-17T12:32:14;8.00;;;2.63;;
51578;SDS011;47998;53.242;6.386;2023-08-17T12:34:42;5.43;;;1.63;;
51578;SDS011;47998;53.242;6.386;2023-08-17T12:37:08;6.13;;;1.50;;
51578;SDS011;47998;53.242;6.386;2023-08-17T12:39:38;4.90;;;1.55;;
51578;SDS011;47998;53.242;6.386;2023-08-17T12:42:06;4.10;;;1.40;;
51578;SDS011;47998;53.242;6.386;2023-08-17T12:44:32;5.40;;;1.58;;
51578;SDS011;47998;53.242;6.386;2023-08-17T12:46:58;6.97;;;1.48;;
51578;SDS011;47998;53.242;6.386;2023-08-17T12:49:23;9.20;;;1.98;;
51578;SDS011;47998;53.242;6.386;2023-08-17T12:51:49;3.65;;;1.20;;
51578;SDS011;47998;53.242;6.386;2023-08-17T12:54:15;25.88;;;2.90;;
51578;SDS011;47998;53.242;6.386;2023-08-17T12:56:41;7.70;;;1.55;;
51578;SDS011;47998;53.242;6.386;2023-08-17T12:59:06;5.05;;;1.77;;
51578;SDS011;47998;53.242;6.386;2023-08-17T13:01:33;5.72;;;1.60;;
51578;SDS011;47998;53.242;6.386;2023-08-17T13:03:58;5.57;;;2.03;;
51578;SDS011;47998;53.242;6.386;2023-08-17T13:06:24;4.18;;;1.40;;
51578;SDS011;47998;53.242;6.386;2023-08-17T13:08:50;3.50;;;1.10;;
51578;SDS011;47998;53.242;6.386;2023-08-17T13:11:18;4.57;;;1.52;;
51578;SDS011;47998;53.242;6.386;2023-08-17T13:13:44;9.45;;;1.65;;
51578;SDS011;47998;53.242;6.386;2023-08-17T13:16:09;4.05;;;1.45;;
51578;SDS011;47998;53.242;6.386;2023-08-17T13:18:37;5.13;;;1.25;;
51578;SDS011;47998;53.242;6.386;2023-08-17T13:21:03;6.13;;;1.48;;
51578;SDS011;47998;53.242;6.386;2023-08-17T13:23:28;2.90;;;1.00;;
51578;SDS011;47998;53.242;6.386;2023-08-17T13:25:54;6.35;;;1.60;;
51578;SDS011;47998;53.242;6.386;2023-08-17T13:28:23;5.22;;;1.20;;
51578;SDS011;47998;53.242;6.386;2023-08-17T13:30:48;3.40;;;1.42;;
51578;SDS011;47998;53.242;6.386;2023-08-17T13:33:14;4.53;;;1.45;;
51578;SDS011;47998;53.242;6.386;2023-08-17T13:35:42;3.95;;;1.13;;
51578;SDS011;47998;53.242;6.386;2023-08-17T13:38:07;5.63;;;1.50;;
51578;SDS011;47998;53.242;6.386;2023-08-17T13:40:33;5.88;;;1.80;;
51578;SDS011;47998;53.242;6.386;2023-08-17T13:43:01;5.95;;;1.42;;
51578;SDS011;47998;53.242;6.386;2023-08-17T13:45:28;5.22;;;1.35;;
51578;SDS011;47998;53.242;6.386;2023-08-17T13:47:54;7.90;;;1.50;;
51578;SDS011;47998;53.242;6.386;2023-08-17T13:50:19;5.47;;;1.65;;
51578;SDS011;47998;53.242;6.386;2023-08-17T13:52:45;6.85;;;2.13;;
51578;SDS011;47998;53.242;6.386;2023-08-17T13:55:12;6.38;;;1.65;;
51578;SDS011;47998;53.242;6.386;2023-08-17T13:57:37;5.40;;;1.88;;
51578;SDS011;47998;53.242;6.386;2023-08-17T14:00:03;9.15;;;2.33;;
51578;SDS011;47998;53.242;6.386;2023-08-17T14:02:30;4.28;;;1.63;;
51578;SDS011;47998;53.242;6.386;2023-08-17T14:04:56;5.80;;;1.70;;
51578;SDS011;47998;53.242;6.386;2023-08-17T14:07:22;7.78;;;1.55;;
51578;SDS011;47998;53.242;6.386;2023-08-17T14:09:48;9.02;;;1.73;;
51578;SDS011;47998;53.242;6.386;2023-08-17T14:12:13;10.25;;;2.28;;
51578;SDS011;47998;53.242;6.386;2023-08-17T14:14:39;4.85;;;1.63;;
51578;SDS011;47998;53.242;6.386;2023-08-17T14:17:05;7.55;;;1.98;;
51578;SDS011;47998;53.242;6.386;2023-08-17T14:19:30;7.25;;;2.42;;
51578;SDS011;47998;53.242;6.386;2023-08-17T14:21:56;4.57;;;2.00;;
51578;SDS011;47998;53.242;6.386;2023-08-17T14:24:24;6.28;;;2.10;;
51578;SDS011;47998;53.242;6.386;2023-08-17T14:26:50;6.35;;;2.38;;
51578;SDS011;47998;53.242;6.386;2023-08-17T14:29:16;5.82;;;2.05;;
51578;SDS011;47998;53.242;6.386;2023-08-17T14:31:41;7.03;;;2.10;;
51578;SDS011;47998;53.242;6.386;2023-08-17T14:34:07;7.25;;;1.90;;
51578;SDS011;47998;53.242;6.386;2023-08-17T14:36:33;5.32;;;1.73;;
51578;SDS011;47998;53.242;6.386;2023-08-17T14:38:58;7.30;;;1.98;;
51578;SDS011;47998;53.242;6.386;2023-08-17T14:41:24;7.90;;;2.15;;
51578;SDS011;47998;53.242;6.386;2023-08-17T14:43:56;6.22;;;2.13;;
51578;SDS011;47998;53.242;6.386;2023-08-17T14:46:23;4.90;;;2.05;;
51578;SDS011;47998;53.242;6.386;2023-08-17T14:48:50;5.45;;;2.22;;
51578;SDS011;47998;53.242;6.386;2023-08-17T14:51:16;10.48;;;1.88;;
51578;SDS011;47998;53.242;6.386;2023-08-17T14:53:41;5.93;;;1.95;;
51578;SDS011;47998;53.242;6.386;2023-08-17T14:56:07;11.13;;;2.53;;
51578;SDS011;47998;53.242;6.386;2023-08-17T14:58:33;5.60;;;2.30;;
51578;SDS011;47998;53.242;6.386;2023-08-17T15:00:58;7.05;;;2.65;;